Time;durP1;ratioP1;P1;durP2;ratioP2;P2;SDS_P1;SDS_P2;PMS_P1;PMS_P2;Temp;Humidity;BMP_temperature;BMP_pressure;BME280_temperature;BME280_humidity;BME280_pressure;Samples;Min_cycle;Max_cycle;Signal;HPM_P1;HPM_P2
2021/08/12 00:01:21;;;;;;;9.80;6.30;;;20.40;99.90;;;;;;5017322;28;20627;-76
2021/08/12 00:03:47;;;;;;;6.90;6.07;;;20.40;99.90;;;;;;5051309;28;20900;-75
2021/08/12 00:06:13;;;;;;;6.13;5.53;;;20.40;99.90;;;;;;5033536;28;20570;-76
2021/08/12 00:08:39;;;;;;;6.53;5.93;;;20.40;99.90;;;;;;5033723;28;20528;-76
2021/08/12 00:11:05;;;;;;;7.70;6.30;;;20.40;99.90;;;;;;5033768;28;20602;-76
2021/08/12 00:13:31;;;;;;;6.80;6.20;;;20.40;99.90;;;;;;5033557;28;20227;-76
2021/08/12 00:15:59;;;;;;;8.87;6.37;;;20.40;99.90;;;;;;5033579;28;20655;-76
2021/08/12 00:18:26;;;;;;;6.60;6.00;;;20.40;99.90;;;;;;5033445;28;20567;-76
2021/08/12 00:20:52;;;;;;;6.07;5.20;;;20.30;99.90;;;;;;5033375;28;21040;-77
2021/08/12 00:23:18;;;;;;;6.77;6.07;;;20.30;99.90;;;;;;5051279;28;20571;-77
2021/08/12 00:25:46;;;;;;;7.43;6.63;;;20.30;99.90;;;;;;5016553;28;20591;-77
2021/08/12 00:28:13;;;;;;;6.00;5.50;;;20.20;99.90;;;;;;5032627;28;20195;-77
2021/08/12 00:30:39;;;;;;;6.87;6.27;;;20.20;99.90;;;;;;5050172;28;20623;-77
2021/08/12 00:33:05;;;;;;;5.87;5.30;;;20.10;99.90;;;;;;5032488;28;20587;-77
2021/08/12 00:35:31;;;;;;;6.30;5.70;;;20.10;99.90;;;;;;5015624;28;21149;-77
2021/08/12 00:38:01;;;;;;;6.97;6.37;;;20.10;99.90;;;;;;5016835;28;21187;-77
2021/08/12 00:40:29;;;;;;;6.30;5.70;;;20.10;99.90;;;;;;5015671;28;20618;-77
2021/08/12 00:42:55;;;;;;;6.80;6.17;;;20.00;99.90;;;;;;5034195;28;20629;-77
2021/08/12 00:45:22;;;;;;;6.50;5.90;;;20.00;99.90;;;;;;5016426;28;20590;-77
2021/08/12 00:47:49;;;;;;;7.07;6.47;;;20.00;99.90;;;;;;5033283;28;20573;-77
2021/08/12 00:50:15;;;;;;;6.57;5.87;;;19.90;99.90;;;;;;5033070;28;20582;-76
2021/08/12 00:52:43;;;;;;;6.57;5.97;;;19.90;99.90;;;;;;5016590;28;20575;-77
2021/08/12 00:55:10;;;;;;;6.90;6.20;;;19.90;99.90;;;;;;5016177;28;20575;-77
2021/08/12 00:57:37;;;;;;;6.77;5.80;;;19.90;99.90;;;;;;5033296;28;20574;-76
2021/08/12 01:00:05;;;;;;;7.13;6.43;;;19.90;99.90;;;;;;5032890;28;20563;-75
2021/08/12 01:02:31;;;;;;;6.70;6.10;;;19.90;99.90;;;;;;5050871;28;20592;-76
2021/08/12 01:04:58;;;;;;;8.30;6.30;;;19.80;99.90;;;;;;5032940;28;20591;-76
2021/08/12 01:07:27;;;;;;;7.37;5.27;;;19.80;99.90;;;;;;5001808;28;20567;-77
2021/08/12 01:10:01;;;;;;;7.57;6.80;;;19.80;99.90;;;;;;5036970;28;20574;-77
2021/08/12 01:12:37;;;;;;;7.93;6.20;;;19.70;99.90;;;;;;5020231;28;20635;-76
2021/08/12 01:15:07;;;;;;;6.97;6.27;;;19.70;99.90;;;;;;5036320;28;20626;-76
2021/08/12 01:17:40;;;;;;;6.90;6.20;;;19.70;99.90;;;;;;5036980;28;20985;-77
2021/08/12 01:20:12;;;;;;;7.20;6.50;;;19.70;99.90;;;;;;5055139;28;21253;-77
2021/08/12 01:22:47;;;;;;;7.20;6.47;;;19.70;99.90;;;;;;5003949;28;20675;-76
2021/08/12 01:25:22;;;;;;;9.23;6.60;;;19.60;99.90;;;;;;5003418;28;20580;-76
2021/08/12 01:27:50;;;;;;;10.33;7.00;;;19.60;99.90;;;;;;5036457;28;20666;-77
2021/08/12 01:30:46;;;;;;;7.43;6.10;;;19.60;99.90;;;;;;5036503;28;20912;-77
2021/08/12 01:33:33;;;;;;;6.90;6.30;;;19.60;99.90;;;;;;5032705;28;20678;-77
2021/08/12 01:36:03;;;;;;;7.93;7.23;;;19.60;99.90;;;;;;5035684;28;20578;-77
2021/08/12 01:38:30;;;;;;;7.37;6.40;;;19.60;99.90;;;;;;5019928;28;20571;-76
2021/08/12 01:40:59;;;;;;;7.13;6.53;;;19.50;99.90;;;;;;5035924;28;21201;-76
2021/08/12 01:43:26;;;;;;;9.23;7.17;;;19.50;99.90;;;;;;5036371;28;20609;-76
2021/08/12 01:46:00;;;;;;;7.17;6.47;;;19.50;99.90;;;;;;5019212;28;20571;-76
2021/08/12 01:48:30;;;;;;;6.73;6.10;;;19.50;99.90;;;;;;5019943;28;21124;-77
2021/08/12 01:50:58;;;;;;;6.90;6.20;;;19.50;99.90;;;;;;5019585;28;20697;-77
2021/08/12 01:53:25;;;;;;;6.90;6.30;;;19.50;99.90;;;;;;5019336;28;21143;-77
2021/08/12 01:55:52;;;;;;;6.60;5.97;;;19.40;99.90;;;;;;5019483;28;20575;-76
2021/08/12 01:58:20;;;;;;;6.50;5.90;;;19.40;99.90;;;;;;5019212;28;20587;-77
2021/08/12 02:00:48;;;;;;;8.10;6.23;;;19.40;99.90;;;;;;5019485;28;21194;-77
2021/08/12 02:03:16;;;;;;;5.77;5.27;;;19.40;99.90;;;;;;5035797;28;20571;-77
2021/08/12 02:05:44;;;;;;;6.20;5.47;;;19.40;99.90;;;;;;5002845;28;20580;-76
2021/08/12 02:08:11;;;;;;;7.00;6.20;;;19.40;99.90;;;;;;5035588;28;20568;-77
2021/08/12 02:10:37;;;;;;;5.50;5.00;;;19.40;99.90;;;;;;5035756;28;20626;-77
2021/08/12 02:13:06;;;;;;;8.27;5.43;;;19.40;99.90;;;;;;5035708;28;20926;-76
2021/08/12 02:15:31;;;;;;;5.87;5.17;;;19.40;99.90;;;;;;5018631;28;20571;-77
2021/08/12 02:17:57;;;;;;;5.80;4.80;;;19.40;99.90;;;;;;5035347;28;20598;-76
2021/08/12 02:20:24;;;;;;;5.77;5.27;;;19.50;99.90;;;;;;5018661;28;20611;-77
2021/08/12 02:23:02;;;;;;;5.00;4.50;;;19.40;99.90;;;;;;5018860;28;20590;-77
2021/08/12 02:25:30;;;;;;;5.87;4.60;;;19.50;99.90;;;;;;5002303;28;20185;-77
2021/08/12 02:27:59;;;;;;;5.73;5.23;;;19.50;99.90;;;;;;5018920;28;20566;-77
2021/08/12 02:30:25;;;;;;;4.93;4.40;;;19.50;99.90;;;;;;5035290;28;20575;-77
2021/08/12 02:32:53;;;;;;;5.77;5.17;;;19.50;99.90;;;;;;5020507;28;20572;-77
2021/08/12 02:35:20;;;;;;;6.03;5.47;;;19.50;99.90;;;;;;5052923;28;20637;-77
2021/08/12 02:37:49;;;;;;;4.73;4.20;;;19.50;99.90;;;;;;5035282;28;20599;-77
2021/08/12 02:40:16;;;;;;;5.67;5.07;;;19.50;99.90;;;;;;5034965;28;20617;-77
2021/08/12 02:42:43;;;;;;;4.90;4.40;;;19.60;99.90;;;;;;5018737;28;20600;-77
2021/08/12 02:45:11;;;;;;;5.43;4.93;;;19.60;99.90;;;;;;5034613;28;20959;-77
2021/08/12 02:47:40;;;;;;;5.60;4.73;;;19.60;99.90;;;;;;5052765;28;20972;-77
2021/08/12 02:50:09;;;;;;;5.17;4.67;;;19.60;99.90;;;;;;5052555;28;20568;-78
2021/08/12 02:52:37;;;;;;;18.47;6.20;;;19.70;99.90;;;;;;5034849;28;20591;-77
2021/08/12 02:55:04;;;;;;;4.93;4.50;;;19.70;99.90;;;;;;5018049;28;20927;-77
2021/08/12 02:57:31;;;;;;;5.37;4.93;;;19.70;99.90;;;;;;5018204;28;20603;-77
2021/08/12 02:59:57;;;;;;;6.13;4.60;;;19.80;99.90;;;;;;5034598;28;20555;-77
2021/08/12 03:02:24;;;;;;;5.50;4.13;;;19.80;99.90;;;;;;5034777;28;20702;-77
2021/08/12 03:04:50;;;;;;;4.67;4.23;;;19.70;99.90;;;;;;5034341;28;20564;-77
2021/08/12 03:07:18;;;;;;;6.60;6.00;;;19.70;99.90;;;;;;5018108;28;20912;-77
2021/08/12 03:09:48;;;;;;;7.73;5.70;;;19.70;99.90;;;;;;5035856;28;20559;-77
2021/08/12 03:12:15;;;;;;;6.07;4.77;;;19.70;99.90;;;;;;5034467;28;20694;-77
2021/08/12 03:14:41;;;;;;;5.53;4.27;;;19.60;99.90;;;;;;5034127;28;21178;-76
2021/08/12 03:17:11;;;;;;;5.33;4.67;;;19.60;99.90;;;;;;5017805;28;20674;-77
2021/08/12 03:19:39;;;;;;;5.83;4.97;;;19.60;99.90;;;;;;5034424;28;20904;-77
2021/08/12 03:22:07;;;;;;;5.17;4.67;;;19.60;99.90;;;;;;5051912;28;20681;-77
2021/08/12 03:24:41;;;;;;;5.73;4.80;;;19.60;99.90;;;;;;5033898;28;20658;-77
2021/08/12 03:27:11;;;;;;;7.40;4.73;;;19.60;99.90;;;;;;5034311;28;20661;-77
2021/08/12 03:29:38;;;;;;;4.97;4.47;;;19.50;99.90;;;;;;5034180;28;20701;-77
2021/08/12 03:32:05;;;;;;;5.97;4.20;;;19.50;99.90;;;;;;5033232;28;20650;-77
2021/08/12 03:34:30;;;;;;;5.20;4.47;;;19.50;99.90;;;;;;5051699;28;20892;-77
2021/08/12 03:36:56;;;;;;;5.97;5.37;;;19.40;99.90;;;;;;5033905;28;20572;-77
2021/08/12 03:39:22;;;;;;;5.20;4.63;;;19.40;99.90;;;;;;5033843;28;20177;-76
2021/08/12 03:41:50;;;;;;;5.07;4.57;;;19.40;99.90;;;;;;5033796;28;20869;-76
2021/08/12 03:44:17;;;;;;;5.23;4.73;;;19.40;99.90;;;;;;5033569;28;20564;-76
2021/08/12 03:46:43;;;;;;;7.00;4.40;;;19.40;99.90;;;;;;5017310;28;20576;-76
2021/08/12 03:49:09;;;;;;;6.30;4.93;;;19.40;99.90;;;;;;5017331;28;20562;-76
2021/08/12 03:51:34;;;;;;;11.63;5.60;;;19.40;99.90;;;;;;5035966;28;20606;-77
2021/08/12 03:54:00;;;;;;;8.27;4.80;;;19.40;99.90;;;;;;5051418;28;20227;-76
2021/08/12 03:56:26;;;;;;;5.17;4.67;;;19.40;99.90;;;;;;5051417;28;20563;-76
2021/08/12 03:58:52;;;;;;;6.80;4.63;;;19.40;99.90;;;;;;5033857;28;20570;-76
2021/08/12 04:01:18;;;;;;;5.83;5.30;;;19.50;99.90;;;;;;5033588;28;20203;-76
2021/08/12 04:03:44;;;;;;;5.10;4.60;;;19.50;99.90;;;;;;5017328;28;20610;-76
2021/08/12 04:06:10;;;;;;;6.30;4.33;;;19.50;99.90;;;;;;5051197;28;20958;-76
2021/08/12 04:08:36;;;;;;;4.63;4.23;;;19.50;99.90;;;;;;5017422;28;20575;-76
2021/08/12 04:11:02;;;;;;;4.10;3.80;;;19.60;99.90;;;;;;5033674;28;20690;-76
2021/08/12 04:13:29;;;;;;;4.57;4.10;;;19.50;99.90;;;;;;5033520;28;20176;-76
2021/08/12 04:15:56;;;;;;;5.10;4.60;;;19.50;99.90;;;;;;5033211;28;20567;-76
2021/08/12 04:18:22;;;;;;;6.80;4.57;;;19.50;99.90;;;;;;5051009;28;20173;-77
2021/08/12 04:20:49;;;;;;;5.03;4.63;;;19.60;99.90;;;;;;5016991;28;21181;-76
2021/08/12 04:23:15;;;;;;;6.10;5.17;;;19.60;99.90;;;;;;5034154;28;20949;-77
2021/08/12 04:25:41;;;;;;;6.40;5.90;;;19.60;99.90;;;;;;5033201;28;20563;-76
2021/08/12 04:28:08;;;;;;;8.30;5.97;;;19.50;99.90;;;;;;5033178;28;20180;-76
2021/08/12 04:30:34;;;;;;;7.27;5.00;;;19.50;99.90;;;;;;5051473;28;20560;-76
2021/08/12 04:33:01;;;;;;;6.00;5.40;;;19.50;99.90;;;;;;5033303;28;20569;-76
2021/08/12 04:35:33;;;;;;;5.10;4.50;;;19.50;99.90;;;;;;5051032;28;20621;-76
2021/08/12 04:37:59;;;;;;;5.97;5.13;;;19.50;99.90;;;;;;5033956;28;20579;-76
2021/08/12 04:40:24;;;;;;;7.40;5.10;;;19.50;99.90;;;;;;5033472;28;20193;-77
2021/08/12 04:42:53;;;;;;;7.30;4.97;;;19.50;99.90;;;;;;5035736;28;20578;-77
2021/08/12 04:45:20;;;;;;;6.50;5.73;;;19.50;99.90;;;;;;5055074;28;20647;-76
2021/08/12 04:47:46;;;;;;;5.80;5.30;;;19.50;99.90;;;;;;5037243;28;20922;-76
2021/08/12 04:50:13;;;;;;;5.80;5.17;;;19.50;99.90;;;;;;5037228;28;20670;-76
2021/08/12 04:52:39;;;;;;;6.40;5.80;;;19.50;99.90;;;;;;5036975;28;20199;-77
2021/08/12 04:55:10;;;;;;;6.10;5.50;;;19.60;99.90;;;;;;5054979;28;20923;-76
2021/08/12 04:57:36;;;;;;;7.07;5.20;;;19.60;99.90;;;;;;5036594;28;20173;-77
2021/08/12 05:00:02;;;;;;;8.57;5.00;;;19.60;99.90;;;;;;5048035;28;20675;-76
2021/08/12 05:02:28;;;;;;;5.60;5.03;;;19.60;99.90;;;;;;5036566;28;20268;-77
2021/08/12 05:04:54;;;;;;;7.20;5.20;;;19.60;99.90;;;;;;5036715;28;20670;-77
2021/08/12 05:07:20;;;;;;;6.77;4.93;;;19.70;99.90;;;;;;5038428;28;21175;-77
2021/08/12 05:09:46;;;;;;;8.07;5.70;;;19.70;99.90;;;;;;5038803;28;20574;-77
2021/08/12 05:12:17;;;;;;;7.00;4.63;;;19.60;99.90;;;;;;5038377;28;21142;-77
2021/08/12 05:14:43;;;;;;;4.93;4.43;;;19.70;99.90;;;;;;5037731;28;20176;-76
2021/08/12 05:17:09;;;;;;;5.53;4.90;;;19.70;99.90;;;;;;5037546;28;20574;-76
2021/08/12 05:19:34;;;;;;;5.90;4.90;;;19.60;99.90;;;;;;5037135;28;20535;-76
2021/08/12 05:22:00;;;;;;;5.33;4.83;;;19.60;99.90;;;;;;5036761;28;20211;-77
2021/08/12 05:24:26;;;;;;;6.77;5.63;;;19.50;99.90;;;;;;5037959;28;20169;-76
2021/08/12 05:26:53;;;;;;;5.57;5.00;;;19.60;99.90;;;;;;5036558;28;21175;-77
2021/08/12 05:29:19;;;;;;;6.40;5.83;;;19.60;99.90;;;;;;5020135;28;20678;-77
2021/08/12 05:31:45;;;;;;;5.97;5.47;;;19.70;99.90;;;;;;5036583;28;20720;-77
2021/08/12 05:34:11;;;;;;;7.10;6.40;;;19.70;99.90;;;;;;5036115;28;20180;-76
2021/08/12 05:36:37;;;;;;;6.00;5.20;;;19.60;99.90;;;;;;5056131;28;20560;-77
2021/08/12 05:39:03;;;;;;;6.57;5.97;;;19.70;99.90;;;;;;5036285;28;20565;-77
2021/08/12 05:41:31;;;;;;;6.47;5.87;;;19.80;99.90;;;;;;5034048;28;20209;-76
2021/08/12 05:43:59;;;;;;;6.47;5.80;;;19.90;99.90;;;;;;5024467;28;20571;-77
2021/08/12 05:46:24;;;;;;;5.83;5.33;;;20.00;99.90;;;;;;5058002;28;20566;-76
2021/08/12 05:48:50;;;;;;;6.80;6.20;;;20.10;99.90;;;;;;5056029;28;20196;-76
2021/08/12 05:51:16;;;;;;;7.23;6.53;;;20.20;99.90;;;;;;5039473;28;20199;-76
2021/08/12 05:53:42;;;;;;;7.97;6.07;;;20.30;99.90;;;;;;5038920;28;20193;-76
2021/08/12 05:56:08;;;;;;;7.60;6.80;;;20.40;99.90;;;;;;5056359;28;20632;-77
2021/08/12 05:58:38;;;;;;;6.20;5.60;;;20.50;99.90;;;;;;5054192;28;20559;-76
2021/08/12 06:01:07;;;;;;;10.47;7.13;;;20.50;99.90;;;;;;5019403;28;20208;-77
2021/08/12 06:03:33;;;;;;;5.97;5.33;;;20.50;99.90;;;;;;5036045;28;20651;-77
2021/08/12 06:06:01;;;;;;;6.27;5.57;;;20.60;99.90;;;;;;5036088;28;20556;-77
2021/08/12 06:08:28;;;;;;;6.37;5.67;;;20.70;99.90;;;;;;5035975;28;20567;-76
2021/08/12 06:10:54;;;;;;;8.67;6.67;;;20.80;99.90;;;;;;5035913;28;20602;-77
2021/08/12 06:13:20;;;;;;;8.07;6.83;;;20.90;99.90;;;;;;5054445;28;20650;-77
2021/08/12 06:15:46;;;;;;;6.87;6.10;;;21.00;99.90;;;;;;5035605;28;20200;-77
2021/08/12 06:18:14;;;;;;;8.33;6.93;;;21.10;99.90;;;;;;5035682;28;20672;-77
2021/08/12 06:20:41;;;;;;;11.27;6.73;;;21.30;99.90;;;;;;5035364;28;20208;-77
2021/08/12 06:23:08;;;;;;;6.50;5.80;;;21.40;99.90;;;;;;5035450;28;20679;-77
2021/08/12 06:25:37;;;;;;;6.27;5.67;;;21.70;99.90;;;;;;5035227;28;20591;-77
2021/08/12 06:28:04;;;;;;;6.23;5.57;;;21.90;99.90;;;;;;5019137;28;20563;-77
2021/08/12 06:30:30;;;;;;;7.23;5.77;;;22.20;99.90;;;;;;5035280;28;21201;-77
2021/08/12 06:32:57;;;;;;;6.57;5.40;;;22.50;99.90;;;;;;5002475;28;21224;-77
2021/08/12 06:35:23;;;;;;;7.20;5.67;;;22.60;99.90;;;;;;5035163;28;20935;-77
2021/08/12 06:37:52;;;;;;;7.53;5.53;;;22.80;99.90;;;;;;5034615;28;20208;-77
2021/08/12 06:40:23;;;;;;;6.10;5.60;;;22.80;99.90;;;;;;5034888;28;20598;-75
2021/08/12 06:42:50;;;;;;;5.90;5.40;;;22.90;99.90;;;;;;5034772;28;20564;-76
2021/08/12 06:45:19;;;;;;;6.10;5.43;;;23.20;99.90;;;;;;5034989;28;20674;-76
2021/08/12 06:47:46;;;;;;;6.87;5.97;;;23.70;99.90;;;;;;5018183;28;20590;-76
2021/08/12 06:50:14;;;;;;;4.63;4.20;;;24.40;99.90;;;;;;5035145;28;20564;-76
2021/08/12 06:52:41;;;;;;;5.50;5.00;;;25.10;99.90;;;;;;5034868;28;20596;-76
2021/08/12 06:55:08;;;;;;;5.50;5.00;;;25.80;99.90;;;;;;5034602;28;20666;-76
2021/08/12 06:57:34;;;;;;;5.13;4.63;;;26.20;99.90;;;;;;5034802;28;20925;-76
2021/08/12 07:00:00;;;;;;;5.30;4.33;;;26.60;99.90;;;;;;5034682;28;20556;-76
2021/08/12 07:02:26;;;;;;;5.40;5.00;;;27.00;99.90;;;;;;5034743;28;20299;-76
2021/08/12 07:04:52;;;;;;;5.83;5.33;;;27.20;99.90;;;;;;5034163;28;20563;-76
2021/08/12 07:07:19;;;;;;;6.37;5.77;;;27.20;99.90;;;;;;5018037;28;20576;-76
2021/08/12 07:09:51;;;;;;;5.43;4.40;;;27.20;99.90;;;;;;5034415;28;20599;-77
2021/08/12 07:12:17;;;;;;;5.27;4.77;;;27.30;99.90;;;;;;5034426;28;20697;-76
2021/08/12 07:14:43;;;;;;;5.93;5.33;;;27.30;99.90;;;;;;5051967;28;20583;-77
2021/08/12 07:17:09;;;;;;;6.47;5.87;;;27.40;99.90;;;;;;5034597;28;20568;-76
2021/08/12 07:19:34;;;;;;;7.27;5.90;;;27.50;99.90;;;;;;5017731;28;20390;-76
2021/08/12 07:22:00;;;;;;;10.43;6.50;;;27.60;99.90;;;;;;5034296;28;20232;-76
2021/08/12 07:24:27;;;;;;;6.53;4.90;;;27.40;99.90;;;;;;5017416;28;20180;-76
2021/08/12 07:26:53;;;;;;;6.00;5.20;;;27.30;99.90;;;;;;5034483;28;20567;-76
2021/08/12 07:29:19;;;;;;;5.43;4.93;;;27.20;99.90;;;;;;5034390;28;20574;-76
2021/08/12 07:31:47;;;;;;;5.83;5.27;;;27.20;99.90;;;;;;5017571;28;20616;-77
2021/08/12 07:34:13;;;;;;;5.03;4.53;;;27.10;99.90;;;;;;5033921;28;20568;-77
2021/08/12 07:36:39;;;;;;;5.03;4.50;;;27.10;99.90;;;;;;5033853;28;20933;-74
2021/08/12 07:39:08;;;;;;;4.23;3.80;;;27.10;99.90;;;;;;5034198;28;21218;-74
2021/08/12 07:41:34;;;;;;;4.60;4.20;;;27.10;99.90;;;;;;5017596;28;21035;-74
2021/08/12 07:44:03;;;;;;;5.60;4.93;;;27.10;99.90;;;;;;5051747;28;20937;-77
2021/08/12 07:46:29;;;;;;;6.07;4.60;;;27.20;99.90;;;;;;5051730;28;20575;-74
2021/08/12 07:48:55;;;;;;;5.37;4.87;;;27.20;99.90;;;;;;5034052;28;20645;-77
2021/08/12 07:51:23;;;;;;;5.03;4.53;;;27.20;99.90;;;;;;5051499;28;21142;-74
2021/08/12 07:53:53;;;;;;;10.50;4.70;;;27.10;99.90;;;;;;5033716;28;20169;-74
2021/08/12 07:56:19;;;;;;;5.97;5.40;;;27.20;99.90;;;;;;5016979;28;20563;-75
2021/08/12 07:58:46;;;;;;;6.17;5.57;;;27.30;99.90;;;;;;5033986;28;20575;-75
2021/08/12 08:01:12;;;;;;;5.87;5.37;;;27.50;99.90;;;;;;5017010;28;20976;-75
2021/08/12 08:03:38;;;;;;;5.50;4.57;;;27.80;99.90;;;;;;5033545;28;20580;-75
2021/08/12 08:06:04;;;;;;;5.17;4.77;;;28.10;99.90;;;;;;5017254;28;20576;-75
2021/08/12 08:08:30;;;;;;;5.67;5.17;;;28.50;99.90;;;;;;5033582;28;20171;-76
2021/08/12 08:10:56;;;;;;;6.50;5.90;;;28.90;99.90;;;;;;5034118;28;20561;-76
2021/08/12 08:13:21;;;;;;;6.97;5.50;;;29.30;99.90;;;;;;5051308;28;20169;-76
2021/08/12 08:15:47;;;;;;;7.53;6.80;;;29.80;99.90;;;;;;5051356;28;20617;-75
2021/08/12 08:18:13;;;;;;;7.37;6.53;;;30.10;99.90;;;;;;5050731;28;20517;-75
2021/08/12 08:20:41;;;;;;;5.90;5.40;;;30.30;99.90;;;;;;5051169;28;20716;-76
2021/08/12 08:23:09;;;;;;;7.77;6.27;;;30.60;99.90;;;;;;5051082;28;20700;-75
2021/08/12 08:25:35;;;;;;;5.70;5.20;;;30.80;99.90;;;;;;5051000;28;20964;-75
2021/08/12 08:28:02;;;;;;;6.63;6.00;;;31.10;99.90;;;;;;5050986;28;20569;-75
2021/08/12 08:30:30;;;;;;;6.77;6.00;;;31.40;99.90;;;;;;5033488;28;20965;-75
2021/08/12 08:32:56;;;;;;;6.07;5.47;;;31.60;99.90;;;;;;5051173;28;20576;-75
2021/08/12 08:35:25;;;;;;;6.23;5.73;;;31.90;99.90;;;;;;5050659;28;20662;-75
2021/08/12 08:37:51;;;;;;;5.27;4.87;;;32.00;99.90;;;;;;5051105;28;20179;-75
2021/08/12 08:40:17;;;;;;;6.50;5.90;;;32.00;99.90;;;;;;5016682;28;20575;-75
2021/08/12 08:42:45;;;;;;;6.13;5.53;;;32.10;99.90;;;;;;5051036;28;20611;-76
2021/08/12 08:45:12;;;;;;;6.57;5.97;;;32.20;99.90;;;;;;5050689;28;20211;-75
2021/08/12 08:47:40;;;;;;;6.67;5.80;;;32.10;99.90;;;;;;5050982;28;20570;-75
2021/08/12 08:50:06;;;;;;;6.90;6.27;;;32.10;99.90;;;;;;5033255;28;20570;-75
2021/08/12 08:52:34;;;;;;;6.00;5.40;;;32.30;99.90;;;;;;5050910;28;21096;-76
2021/08/12 08:55:00;;;;;;;7.77;6.33;;;32.70;99.90;;;;;;5050497;28;20564;-76
2021/08/12 08:57:27;;;;;;;6.17;5.60;;;33.10;99.90;;;;;;5033170;28;20930;-75
2021/08/12 08:59:53;;;;;;;9.00;5.70;;;33.60;99.90;;;;;;5033311;28;20180;-75
2021/08/12 09:02:19;;;;;;;6.00;5.50;;;34.10;99.90;;;;;;5050846;28;20619;-76
2021/08/12 09:04:44;;;;;;;5.50;5.00;;;34.50;99.80;;;;;;5050648;28;20576;-75
2021/08/12 09:07:10;;;;;;;6.10;5.60;;;34.70;98.60;;;;;;5050912;28;20238;-76
2021/08/12 09:09:37;;;;;;;5.90;5.37;;;34.90;97.70;;;;;;5050954;28;20165;-76
2021/08/12 09:12:05;;;;;;;5.50;5.00;;;35.20;96.70;;;;;;5050817;28;20255;-75
2021/08/12 09:14:33;;;;;;;5.20;4.73;;;35.60;95.80;;;;;;5050610;28;20649;-76
2021/08/12 09:17:19;;;;;;;5.87;5.37;;;36.00;96.00;;;;;;5050574;28;20568;-76
2021/08/12 09:20:01;;;;;;;6.17;5.57;;;36.30;93.80;;;;;;5016468;28;20611;-76
2021/08/12 09:22:30;;;;;;;6.33;5.73;;;36.40;92.80;;;;;;5050533;28;20633;-76
2021/08/12 09:24:56;;;;;;;6.43;5.43;;;36.30;91.90;;;;;;5050491;28;20569;-76
2021/08/12 09:27:24;;;;;;;6.03;5.40;;;36.30;91.20;;;;;;5050447;28;20920;-76
2021/08/12 09:30:12;;;;;;;4.93;4.43;;;36.40;90.60;;;;;;5052819;28;20985;-76
2021/08/12 09:32:49;;;;;;;5.87;5.30;;;36.50;90.50;;;;;;5036221;28;21308;-76
2021/08/12 09:35:25;;;;;;;4.97;4.60;;;36.60;88.80;;;;;;5053831;28;20666;-75
2021/08/12 09:38:07;;;;;;;4.53;4.10;;;36.70;87.60;;;;;;5053943;28;20593;-76
2021/08/12 09:40:33;;;;;;;4.67;4.20;;;36.70;86.00;;;;;;5054178;28;20603;-76
2021/08/12 09:43:01;;;;;;;6.37;4.33;;;36.60;84.20;;;;;;5037663;28;20594;-76
2021/08/12 09:45:29;;;;;;;4.57;4.17;;;36.40;82.80;;;;;;5058220;28;20188;-77
2021/08/12 09:48:07;;;;;;;4.37;3.97;;;36.20;80.70;;;;;;5046822;28;20685;-76
2021/08/12 09:50:35;;;;;;;3.73;3.40;;;36.00;80.10;;;;;;5073608;28;21109;-76
2021/08/12 09:53:02;;;;;;;3.67;3.37;;;35.80;80.10;;;;;;5052486;28;20602;-76
2021/08/12 09:55:35;;;;;;;3.67;3.37;;;35.90;81.10;;;;;;5053480;28;20564;-76
2021/08/12 09:58:09;;;;;;;4.20;3.47;;;36.20;81.90;;;;;;5053739;28;20700;-76
2021/08/12 10:00:44;;;;;;;3.60;3.30;;;36.50;79.70;;;;;;5062331;28;20640;-76
2021/08/12 10:03:24;;;;;;;4.20;3.67;;;36.70;78.90;;;;;;5055679;28;20578;-76
2021/08/12 10:05:51;;;;;;;4.20;3.50;;;37.00;78.10;;;;;;5073156;28;20565;-76
2021/08/12 10:08:29;;;;;;;4.20;3.80;;;37.30;78.20;;;;;;5055431;28;20575;-76
2021/08/12 10:10:56;;;;;;;7.97;3.40;;;37.60;76.60;;;;;;5055306;28;20937;-76
2021/08/12 10:13:22;;;;;;;4.43;3.30;;;37.80;74.90;;;;;;5073297;28;20567;-76
2021/08/12 10:15:51;;;;;;;2.83;2.63;;;37.80;72.70;;;;;;5072998;28;20646;-76
2021/08/12 10:18:19;;;;;;;3.40;2.90;;;37.70;71.40;;;;;;5051773;28;20187;-76
2021/08/12 10:20:46;;;;;;;3.37;3.10;;;37.70;71.70;;;;;;5055950;28;20630;-75
2021/08/12 10:23:12;;;;;;;2.47;2.17;;;37.80;70.30;;;;;;5055514;28;20674;-76
2021/08/12 10:25:39;;;;;;;2.50;2.00;;;37.90;69.00;;;;;;5072396;28;20551;-75
2021/08/12 10:28:08;;;;;;;2.80;2.13;;;38.00;68.30;;;;;;5073076;28;20570;-76
2021/08/12 10:30:37;;;;;;;2.70;2.37;;;38.10;67.60;;;;;;5055249;28;20658;-76
2021/08/12 10:33:08;;;;;;;3.73;2.87;;;38.50;67.30;;;;;;5073060;28;20692;-76
2021/08/12 10:35:36;;;;;;;2.77;2.57;;;38.70;66.50;;;;;;5072512;28;20571;-75
2021/08/12 10:38:03;;;;;;;3.13;2.60;;;38.90;64.80;;;;;;5054866;28;20574;-76
2021/08/12 10:40:32;;;;;;;3.10;2.33;;;38.90;63.70;;;;;;5071943;28;20574;-75
2021/08/12 10:42:59;;;;;;;2.50;1.70;;;38.70;60.90;;;;;;5072871;28;20570;-75
2021/08/12 10:45:26;;;;;;;3.13;2.37;;;38.50;59.30;;;;;;5072252;28;20651;-75
2021/08/12 10:48:00;;;;;;;3.13;2.03;;;38.10;58.80;;;;;;5055096;28;20570;-75
2021/08/12 10:50:31;;;;;;;4.63;2.73;;;37.70;57.90;;;;;;5054589;28;20574;-75
2021/08/12 10:53:04;;;;;;;3.50;2.63;;;37.40;58.00;;;;;;5054717;28;20578;-75
2021/08/12 10:55:31;;;;;;;4.30;2.93;;;36.90;57.80;;;;;;5054313;28;20709;-74
2021/08/12 11:00:55;;;;;;;4.77;3.40;;;35.90;58.10;;;;;;5072559;28;20668;-74
2021/08/12 11:03:33;;;;;;;3.90;3.30;;;35.40;58.20;;;;;;5072677;28;20599;-75
2021/08/12 11:06:03;;;;;;;7.43;4.10;;;35.00;58.50;;;;;;5054018;28;20560;-75
2021/08/12 11:08:48;;;;;;;4.17;3.30;;;34.50;58.80;;;;;;5076751;22;21215;-77
2021/08/12 11:11:19;;;;;;;3.10;2.57;;;34.20;59.70;;;;;;5052244;28;20965;-75
2021/08/12 11:13:45;;;;;;;4.23;3.73;;;33.80;59.70;;;;;;5034695;28;21025;-77
2021/08/12 11:16:11;;;;;;;4.50;3.07;;;33.50;60.50;;;;;;5052066;28;20697;-77
2021/08/12 11:18:44;;;;;;;3.80;2.67;;;33.20;60.90;;;;;;5050654;28;21173;-77
2021/08/12 11:21:29;;;;;;;4.50;4.07;;;33.10;62.20;;;;;;5050653;28;20200;-77
2021/08/12 11:23:56;;;;;;;4.20;3.80;;;32.90;63.70;;;;;;5051667;28;20570;-77
2021/08/12 11:26:21;;;;;;;4.50;4.10;;;32.90;64.10;;;;;;5034593;28;20572;-75
2021/08/12 11:28:50;;;;;;;4.40;4.00;;;32.90;64.60;;;;;;5033964;28;20653;-75
2021/08/12 11:31:24;;;;;;;4.13;3.83;;;32.90;64.50;;;;;;5055484;28;20598;-75
2021/08/12 11:33:57;;;;;;;6.23;4.30;;;32.90;65.30;;;;;;5047195;28;20613;-77
2021/08/12 11:36:26;;;;;;;5.87;4.77;;;33.00;65.40;;;;;;5031957;28;20668;-77
2021/08/12 11:39:07;;;;;;;7.50;5.17;;;33.00;64.70;;;;;;5013717;28;20645;-77
2021/08/12 11:41:41;;;;;;;5.53;3.63;;;33.00;64.40;;;;;;5013322;28;20643;-76
2021/08/12 11:44:15;;;;;;;4.83;4.07;;;33.00;65.30;;;;;;4997880;28;20610;-77
2021/08/12 11:46:43;;;;;;;6.30;4.43;;;33.00;65.90;;;;;;5014428;28;20575;-76
2021/08/12 11:49:14;;;;;;;4.83;4.43;;;33.00;66.00;;;;;;5013601;28;20651;-77
2021/08/12 11:51:40;;;;;;;7.00;5.57;;;33.00;65.70;;;;;;5019377;28;20608;-77
2021/08/12 11:54:05;;;;;;;5.63;4.63;;;33.10;65.70;;;;;;5031832;28;20644;-77
2021/08/12 11:56:33;;;;;;;7.40;5.10;;;33.00;64.90;;;;;;5016731;28;20929;-77
2021/08/12 11:59:01;;;;;;;5.70;4.17;;;32.60;64.20;;;;;;5051003;28;20549;-77
2021/08/12 12:01:32;;;;;;;4.40;3.97;;;32.40;64.70;;;;;;5033982;28;21180;-77
2021/08/12 12:04:04;;;;;;;5.43;4.50;;;32.50;65.80;;;;;;5033296;28;20579;-77
2021/08/12 12:06:37;;;;;;;6.47;4.37;;;32.60;66.70;;;;;;5034084;28;20935;-77
2021/08/12 12:09:25;;;;;;;3.63;3.33;;;32.80;67.20;;;;;;5034840;28;20692;-77
2021/08/12 12:12:10;;;;;;;3.70;2.60;;;32.90;66.40;;;;;;5017030;28;21203;-77
2021/08/12 12:14:40;;;;;;;3.60;3.00;;;33.10;66.10;;;;;;5033696;28;20577;-78
2021/08/12 12:17:08;;;;;;;3.80;2.73;;;33.30;65.70;;;;;;5051695;28;20962;-77
2021/08/12 12:19:37;;;;;;;4.30;2.90;;;33.40;65.30;;;;;;5033295;28;20573;-77
2021/08/12 12:22:13;;;;;;;3.70;3.10;;;33.60;64.90;;;;;;5050031;28;20572;-77
2021/08/12 12:24:46;;;;;;;3.83;2.50;;;33.70;63.80;;;;;;5033058;28;20574;-81
2021/08/12 12:27:18;;;;;;;4.07;3.30;;;33.80;64.30;;;;;;5033209;28;20586;-80
2021/08/12 12:29:44;;;;;;;3.33;2.87;;;34.00;64.80;;;;;;5051116;28;20580;-81
2021/08/12 12:32:14;;;;;;;2.50;2.30;;;34.10;63.80;;;;;;5049817;28;20649;-80
2021/08/12 12:34:54;;;;;;;3.20;2.40;;;34.20;63.30;;;;;;5032733;28;20568;-80
2021/08/12 12:37:22;;;;;;;5.00;2.13;;;34.30;63.30;;;;;;5033383;28;21218;-80
2021/08/12 12:39:48;;;;;;;2.60;2.40;;;34.40;64.00;;;;;;5050789;28;20956;-80
2021/08/12 12:42:15;;;;;;;2.63;2.23;;;34.60;63.90;;;;;;5051526;28;20917;-80
2021/08/12 12:45:00;;;;;;;2.70;2.47;;;34.60;63.70;;;;;;5055096;28;20555;-80
2021/08/12 12:47:28;;;;;;;3.70;2.80;;;34.70;62.70;;;;;;5050681;28;20554;-80
2021/08/12 12:50:18;;;;;;;2.27;1.97;;;34.70;61.80;;;;;;5032974;28;20624;-81
2021/08/12 12:52:57;;;;;;;3.40;2.30;;;34.60;60.90;;;;;;5016863;28;20678;-80
2021/08/12 12:55:33;;;;;;;3.50;2.30;;;34.50;60.50;;;;;;5032480;28;20928;-81